Time;durP1;ratioP1;P1;durP2;ratioP2;P2;SDS_P1;SDS_P2;PMS_P1;PMS_P2;Temp;Humidity;BMP_temperature;BMP_pressure;BME280_temperature;BME280_humidity;BME280_pressure;Samples;Min_cycle;Max_cycle;Signal;HPM_P1;HPM_P2
2021/05/20 00:00:12;;;;;;;10.93;8.98;;;9.20;93.20;;;;;;5055767;28;20473;-35
2021/05/20 00:02:38;;;;;;;9.40;8.07;;;9.10;93.30;;;;;;5055482;28;20108;-35
2021/05/20 00:05:05;;;;;;;8.82;7.93;;;9.00;93.60;;;;;;5055377;28;20028;-34
2021/05/20 00:07:31;;;;;;;12.02;9.82;;;8.90;93.80;;;;;;5055181;28;20108;-34
2021/05/20 00:09:56;;;;;;;13.25;11.20;;;8.80;93.70;;;;;;5054000;28;20055;-35
2021/05/20 00:12:22;;;;;;;12.68;10.00;;;8.80;93.90;;;;;;5055494;28;20021;-35
2021/05/20 00:14:47;;;;;;;13.45;10.52;;;8.70;94.10;;;;;;5055379;28;20361;-34
2021/05/20 00:17:13;;;;;;;11.07;9.48;;;8.70;94.30;;;;;;5055030;28;20103;-35
2021/05/20 00:19:39;;;;;;;12.05;10.23;;;8.70;94.30;;;;;;5054915;28;20132;-34
2021/05/20 00:22:04;;;;;;;11.77;9.77;;;8.60;94.50;;;;;;5053584;28;20025;-34
2021/05/20 00:24:30;;;;;;;14.80;11.00;;;8.70;94.60;;;;;;5055348;28;20044;-35
2021/05/20 00:26:56;;;;;;;15.60;11.13;;;8.70;94.60;;;;;;5055351;28;20017;-35
2021/05/20 00:29:21;;;;;;;12.63;10.75;;;8.70;94.70;;;;;;5055234;28;20040;-35
2021/05/20 00:31:47;;;;;;;15.05;11.80;;;8.80;94.60;;;;;;5055046;28;20058;-35
2021/05/20 00:34:12;;;;;;;12.68;9.80;;;8.70;94.60;;;;;;5055203;28;20155;-35
2021/05/20 00:36:38;;;;;;;13.30;9.60;;;8.70;94.60;;;;;;5055027;28;20362;-34
2021/05/20 00:39:04;;;;;;;11.57;8.77;;;8.70;94.60;;;;;;5053443;28;20143;-35
2021/05/20 00:41:31;;;;;;;12.13;10.02;;;8.70;94.60;;;;;;5053967;28;20104;-34
2021/05/20 00:43:57;;;;;;;13.57;10.35;;;8.60;94.60;;;;;;5054775;28;20025;-34
2021/05/20 00:46:22;;;;;;;12.98;11.05;;;8.60;94.60;;;;;;5054678;28;20078;-38
2021/05/20 00:48:48;;;;;;;12.60;9.77;;;8.60;94.60;;;;;;5054844;28;20082;-34
2021/05/20 00:51:14;;;;;;;11.43;9.90;;;8.50;94.50;;;;;;5054549;28;20053;-35
2021/05/20 00:53:40;;;;;;;13.05;11.13;;;8.60;94.40;;;;;;5053982;28;20036;-34
2021/05/20 00:56:08;;;;;;;14.15;10.70;;;8.50;94.00;;;;;;5054818;28;20108;-35
2021/05/20 00:58:33;;;;;;;18.58;13.45;;;8.50;94.00;;;;;;5054324;28;20075;-34
2021/05/20 01:00:59;;;;;;;18.20;13.30;;;8.40;94.20;;;;;;5054291;28;20025;-35
2021/05/20 01:03:25;;;;;;;18.73;14.20;;;8.40;94.30;;;;;;5054218;28;20514;-35
2021/05/20 01:05:54;;;;;;;18.73;14.43;;;8.40;94.50;;;;;;5053053;28;20021;-37
2021/05/20 01:08:21;;;;;;;21.08;15.93;;;8.40;94.30;;;;;;5052856;28;20425;-34
2021/05/20 01:10:47;;;;;;;24.52;15.88;;;8.40;94.20;;;;;;5054058;28;20100;-35
2021/05/20 01:13:13;;;;;;;23.65;17.40;;;8.40;94.20;;;;;;5054007;28;20031;-35
2021/05/20 01:15:38;;;;;;;25.52;17.98;;;8.40;94.30;;;;;;5053894;28;20025;-35
2021/05/20 01:18:06;;;;;;;28.48;18.48;;;8.40;94.20;;;;;;5054024;28;20029;-35
2021/05/20 01:20:38;;;;;;;29.15;18.88;;;8.50;94.20;;;;;;5053890;28;20091;-35
2021/05/20 01:23:06;;;;;;;28.35;18.50;;;8.50;94.00;;;;;;5054187;28;20028;-35
2021/05/20 01:25:32;;;;;;;28.77;16.70;;;8.40;94.10;;;;;;5052384;28;20028;-35
2021/05/20 01:28:02;;;;;;;22.13;16.33;;;8.30;94.20;;;;;;5054035;28;20033;-35
2021/05/20 01:30:28;;;;;;;30.63;17.50;;;8.30;94.60;;;;;;5054144;28;20029;-36
2021/05/20 01:32:54;;;;;;;25.08;17.90;;;8.30;94.40;;;;;;5054007;28;20051;-35
2021/05/20 01:35:19;;;;;;;28.77;19.13;;;8.30;94.40;;;;;;5053786;28;20061;-35
2021/05/20 01:37:45;;;;;;;30.92;18.90;;;8.30;94.10;;;;;;5053811;28;20431;-35
2021/05/20 01:40:12;;;;;;;27.90;18.10;;;8.30;94.00;;;;;;5054072;28;20039;-35
2021/05/20 01:42:38;;;;;;;23.55;15.65;;;8.10;94.20;;;;;;5053803;28;20040;-35
2021/05/20 01:45:04;;;;;;;22.60;17.15;;;8.00;94.50;;;;;;5054006;28;20021;-35
2021/05/20 01:47:30;;;;;;;25.08;17.63;;;8.10;94.70;;;;;;5053511;28;20028;-35
2021/05/20 01:49:56;;;;;;;29.00;19.70;;;8.20;94.40;;;;;;5052279;28;20469;-35
2021/05/20 01:52:22;;;;;;;30.30;19.55;;;8.30;94.10;;;;;;5053292;28;20084;-35
2021/05/20 01:54:48;;;;;;;28.50;19.55;;;8.40;94.00;;;;;;5054059;28;20424;-36
2021/05/20 01:57:15;;;;;;;35.65;23.75;;;8.30;93.90;;;;;;5053563;28;20100;-34
2021/05/20 01:59:41;;;;;;;36.65;22.58;;;8.40;94.00;;;;;;5053113;28;20028;-34
2021/05/20 02:02:06;;;;;;;46.78;25.63;;;8.40;94.20;;;;;;5053251;28;20025;-34
2021/05/20 02:04:32;;;;;;;68.60;30.08;;;8.50;94.20;;;;;;5053453;28;20488;-34
2021/05/20 02:06:58;;;;;;;167.18;37.22;;;8.50;94.30;;;;;;5053160;28;20472;-34
2021/05/20 02:09:24;;;;;;;89.97;33.28;;;8.50;94.60;;;;;;5053484;28;20546;-34
2021/05/20 02:11:50;;;;;;;141.80;38.53;;;8.70;94.50;;;;;;5053426;28;20024;-34
2021/05/20 02:14:15;;;;;;;296.65;55.25;;;8.80;94.50;;;;;;5053060;28;20040;-35
2021/05/20 02:16:41;;;;;;;299.98;51.97;;;9.00;94.00;;;;;;5053014;28;20035;-34
2021/05/20 02:19:06;;;;;;;223.55;47.30;;;8.90;93.90;;;;;;5052993;28;20025;-34
2021/05/20 02:21:32;;;;;;;240.65;46.20;;;8.90;93.90;;;;;;5053058;28;20028;-34
2021/05/20 02:23:57;;;;;;;346.20;53.05;;;8.80;94.20;;;;;;5051700;28;20070;-34
2021/05/20 02:26:23;;;;;;;376.48;60.58;;;8.80;94.60;;;;;;5053137;28;20021;-35
2021/05/20 02:28:49;;;;;;;291.17;49.08;;;8.80;94.80;;;;;;5035088;28;20025;-34
2021/05/20 02:31:14;;;;;;;218.80;47.88;;;8.90;94.90;;;;;;5053238;28;20033;-34
2021/05/20 02:33:40;;;;;;;237.25;48.72;;;8.90;94.50;;;;;;5051537;28;20032;-34
2021/05/20 02:36:06;;;;;;;317.48;51.13;;;8.80;94.30;;;;;;5052834;28;20025;-33
2021/05/20 02:38:32;;;;;;;309.50;54.40;;;8.80;94.60;;;;;;5052819;28;20029;-35
2021/05/20 02:40:57;;;;;;;227.52;48.22;;;8.70;94.90;;;;;;5052905;28;20532;-35
2021/05/20 02:43:25;;;;;;;208.88;46.30;;;8.60;95.20;;;;;;5052775;28;20021;-35
2021/05/20 02:45:50;;;;;;;286.88;53.33;;;8.70;95.30;;;;;;5053420;28;20454;-36
2021/05/20 02:48:16;;;;;;;299.27;56.83;;;8.70;95.20;;;;;;5053080;28;20029;-36
2021/05/20 02:50:42;;;;;;;377.30;70.05;;;8.80;95.10;;;;;;5052592;28;20439;-36
2021/05/20 02:53:07;;;;;;;546.42;83.03;;;8.60;94.70;;;;;;5052826;28;20393;-36
2021/05/20 02:55:33;;;;;;;316.55;65.10;;;8.60;94.90;;;;;;5051447;28;20025;-36
2021/05/20 02:58:01;;;;;;;295.33;64.03;;;8.60;95.20;;;;;;5052923;28;20461;-36
2021/05/20 03:00:35;;;;;;;283.58;60.97;;;8.60;95.20;;;;;;5053030;28;20029;-36
2021/05/20 03:03:01;;;;;;;379.13;72.95;;;8.70;95.30;;;;;;5052790;28;20075;-35
2021/05/20 03:05:30;;;;;;;316.60;64.90;;;8.80;95.20;;;;;;5052943;28;20025;-35
2021/05/20 03:07:56;;;;;;;271.83;64.65;;;8.80;94.80;;;;;;5056554;28;20435;-38
2021/05/20 03:10:22;;;;;;;235.02;57.38;;;8.80;94.90;;;;;;5056804;28;20056;-35
2021/05/20 03:12:47;;;;;;;278.92;59.47;;;8.80;95.10;;;;;;5056572;28;20064;-35
2021/05/20 03:15:13;;;;;;;136.95;50.85;;;8.70;95.20;;;;;;5056437;28;20386;-36
2021/05/20 03:17:39;;;;;;;200.27;54.83;;;8.60;95.20;;;;;;5055095;28;20116;-36
2021/05/20 03:20:06;;;;;;;208.48;57.60;;;8.70;95.40;;;;;;5056590;28;20426;-35
2021/05/20 03:22:32;;;;;;;148.65;46.03;;;8.70;95.50;;;;;;5056265;28;20543;-35
2021/05/20 03:24:57;;;;;;;109.78;38.50;;;8.50;95.60;;;;;;5056380;28;20025;-35
2021/05/20 03:27:23;;;;;;;196.45;48.03;;;8.60;95.60;;;;;;5056254;28;20360;-35
2021/05/20 03:29:49;;;;;;;161.20;48.15;;;8.80;95.50;;;;;;5056491;28;20033;-35
2021/05/20 03:32:15;;;;;;;146.27;44.42;;;8.70;94.90;;;;;;5054879;28;20036;-35
2021/05/20 03:34:40;;;;;;;246.77;51.90;;;8.50;95.00;;;;;;5056117;28;20036;-35
2021/05/20 03:37:06;;;;;;;219.00;50.58;;;8.40;95.10;;;;;;5056282;28;20025;-35
2021/05/20 03:39:32;;;;;;;136.40;49.15;;;8.20;95.60;;;;;;5056233;28;20029;-35
2021/05/20 03:41:57;;;;;;;190.63;50.05;;;8.30;96.00;;;;;;5055919;28;20025;-36
2021/05/20 03:44:23;;;;;;;151.05;50.05;;;8.30;96.00;;;;;;5055918;28;20021;-35
2021/05/20 03:46:49;;;;;;;148.98;47.10;;;8.40;96.10;;;;;;5055800;28;20021;-35
2021/05/20 03:49:15;;;;;;;211.48;50.58;;;8.40;95.70;;;;;;5057154;28;20402;-35
2021/05/20 03:51:40;;;;;;;124.10;43.35;;;8.30;95.30;;;;;;5055596;28;20132;-35
2021/05/20 03:54:06;;;;;;;97.43;40.42;;;8.30;95.20;;;;;;5055777;28;20035;-35
2021/05/20 03:56:32;;;;;;;101.72;40.35;;;8.20;95.40;;;;;;5056014;28;20032;-36
2021/05/20 03:58:57;;;;;;;118.15;37.38;;;8.40;95.70;;;;;;5055847;28;20103;-35
2021/05/20 04:01:23;;;;;;;170.13;40.13;;;8.10;95.20;;;;;;5055634;28;20025;-35
2021/05/20 04:03:48;;;;;;;88.82;37.80;;;8.10;95.30;;;;;;5055857;28;20024;-35
2021/05/20 04:06:14;;;;;;;101.05;40.20;;;8.20;95.50;;;;;;5055876;28;20034;-35
2021/05/20 04:08:40;;;;;;;130.23;39.00;;;8.40;95.50;;;;;;5055452;28;20029;-36
2021/05/20 04:11:05;;;;;;;89.30;34.63;;;8.30;95.00;;;;;;5055657;28;20028;-36
2021/05/20 04:13:36;;;;;;;128.88;35.42;;;8.20;94.80;;;;;;5055505;28;20057;-36
2021/05/20 04:16:03;;;;;;;121.20;39.35;;;8.30;94.60;;;;;;5055055;28;20043;-36
2021/05/20 04:18:29;;;;;;;83.28;39.00;;;8.00;95.00;;;;;;5054611;28;20028;-36
2021/05/20 04:20:55;;;;;;;64.00;33.63;;;8.10;95.30;;;;;;5055557;28;20090;-35
2021/05/20 04:23:21;;;;;;;83.20;32.58;;;8.10;95.30;;;;;;5055239;28;20127;-35
2021/05/20 04:25:48;;;;;;;86.57;36.90;;;8.00;95.30;;;;;;5055169;28;20045;-36
2021/05/20 04:28:14;;;;;;;90.75;37.17;;;8.20;95.50;;;;;;5055283;28;20025;-35
2021/05/20 04:30:40;;;;;;;123.05;42.13;;;8.40;95.30;;;;;;5054988;28;20415;-35
2021/05/20 04:33:07;;;;;;;102.53;41.40;;;8.50;94.60;;;;;;5055191;28;20033;-36
2021/05/20 04:35:33;;;;;;;94.13;39.97;;;8.50;94.60;;;;;;5055316;28;20028;-35
2021/05/20 04:38:00;;;;;;;81.30;37.88;;;8.40;94.40;;;;;;5054712;28;20509;-35
2021/05/20 04:40:26;;;;;;;85.65;37.90;;;8.40;94.80;;;;;;5055014;28;20033;-36
2021/05/20 04:42:52;;;;;;;111.43;36.90;;;8.50;95.10;;;;;;5054699;28;20385;-36
2021/05/20 04:45:18;;;;;;;80.90;35.58;;;8.60;94.90;;;;;;5055005;28;20385;-36
2021/05/20 04:47:45;;;;;;;139.07;39.78;;;8.80;94.90;;;;;;5054872;28;20028;-35
2021/05/20 04:50:13;;;;;;;113.55;35.83;;;8.80;94.50;;;;;;5053210;28;20036;-35
2021/05/20 04:52:40;;;;;;;83.65;36.58;;;8.80;94.20;;;;;;5054704;28;20099;-35
2021/05/20 04:55:07;;;;;;;85.60;36.80;;;8.80;94.40;;;;;;5054368;28;20041;-36
2021/05/20 04:57:32;;;;;;;112.97;40.63;;;9.00;94.40;;;;;;5054180;28;20021;-35
2021/05/20 04:59:59;;;;;;;85.25;37.85;;;9.00;94.30;;;;;;5054351;28;20037;-35
2021/05/20 05:02:25;;;;;;;72.68;36.67;;;9.00;94.10;;;;;;5054507;28;20449;-35
2021/05/20 05:04:50;;;;;;;75.65;36.45;;;9.30;93.70;;;;;;5054328;28;20033;-36
2021/05/20 05:07:16;;;;;;;92.75;41.58;;;9.20;93.10;;;;;;5054343;28;20104;-35
2021/05/20 05:09:42;;;;;;;85.22;40.70;;;9.30;93.50;;;;;;5052987;28;20024;-36
2021/05/20 05:12:08;;;;;;;80.65;41.72;;;9.40;93.20;;;;;;5054148;28;20033;-35
2021/05/20 05:14:33;;;;;;;92.25;44.78;;;9.60;93.10;;;;;;5053385;28;20021;-36
2021/05/20 05:16:59;;;;;;;80.18;40.90;;;9.70;92.20;;;;;;5054075;28;20531;-34
2021/05/20 05:19:25;;;;;;;82.40;40.88;;;9.40;92.50;;;;;;5054636;28;20538;-34
2021/05/20 05:21:50;;;;;;;92.38;43.17;;;9.50;93.20;;;;;;5054183;28;20044;-34
2021/05/20 05:24:16;;;;;;;90.05;42.67;;;9.70;92.70;;;;;;5053887;28;20052;-34
2021/05/20 05:26:42;;;;;;;87.93;45.75;;;9.80;92.00;;;;;;5053780;28;20075;-34
2021/05/20 05:29:08;;;;;;;91.60;43.67;;;10.10;92.00;;;;;;5053348;28;20440;-35
2021/05/20 05:31:34;;;;;;;88.63;42.63;;;10.10;91.80;;;;;;5054582;28;20377;-35
2021/05/20 05:34:00;;;;;;;90.75;42.55;;;10.10;91.50;;;;;;5054319;28;20525;-35
2021/05/20 05:36:25;;;;;;;106.50;50.58;;;10.00;91.60;;;;;;5054147;28;20108;-34
2021/05/20 05:38:52;;;;;;;97.80;45.45;;;9.90;91.60;;;;;;5053511;28;20424;-34
2021/05/20 05:41:18;;;;;;;111.15;49.42;;;9.80;92.60;;;;;;5053389;28;20444;-34
2021/05/20 05:43:43;;;;;;;129.27;54.35;;;10.00;91.60;;;;;;5053605;28;20025;-34
2021/05/20 05:46:09;;;;;;;126.57;55.95;;;9.80;92.30;;;;;;5053216;28;20035;-34
2021/05/20 05:48:35;;;;;;;125.88;50.30;;;10.00;92.10;;;;;;5051997;28;20467;-35
2021/05/20 05:51:01;;;;;;;131.77;53.05;;;10.20;91.40;;;;;;5053592;28;20136;-35
2021/05/20 05:53:27;;;;;;;140.75;57.40;;;10.00;91.70;;;;;;5053456;28;20104;-35
2021/05/20 05:55:53;;;;;;;140.90;57.38;;;10.10;91.30;;;;;;5052701;28;20040;-35
2021/05/20 05:58:20;;;;;;;136.40;53.58;;;9.90;92.20;;;;;;5052925;28;20381;-34
2021/05/20 06:00:46;;;;;;;136.10;55.30;;;10.10;92.00;;;;;;5052846;28;20064;-35
2021/05/20 06:03:13;;;;;;;135.25;54.78;;;10.20;91.30;;;;;;5051604;28;20020;-37
2021/05/20 06:05:39;;;;;;;140.77;56.72;;;10.30;91.10;;;;;;5053209;28;20112;-34
2021/05/20 06:08:05;;;;;;;143.70;57.22;;;10.30;90.70;;;;;;5051997;28;20537;-35
2021/05/20 06:10:31;;;;;;;144.48;61.10;;;10.40;90.50;;;;;;5053243;28;20112;-35
2021/05/20 06:12:56;;;;;;;150.10;65.35;;;10.30;90.80;;;;;;5051770;28;20187;-35
2021/05/20 06:15:28;;;;;;;159.30;63.95;;;10.50;90.40;;;;;;5053291;28;20509;-35
2021/05/20 06:17:54;;;;;;;146.25;58.13;;;10.50;90.00;;;;;;5053135;28;20102;-35
2021/05/20 06:20:19;;;;;;;150.55;61.40;;;10.50;90.20;;;;;;5053084;28;20045;-35
2021/05/20 06:22:46;;;;;;;132.75;56.17;;;10.50;89.90;;;;;;5053041;28;20021;-35
2021/05/20 06:25:12;;;;;;;138.02;58.20;;;10.70;89.50;;;;;;5053353;28;20124;-35
2021/05/20 06:27:37;;;;;;;116.45;53.72;;;10.70;89.40;;;;;;5052289;28;20124;-35
2021/05/20 06:30:03;;;;;;;119.65;53.17;;;10.80;89.00;;;;;;5052529;28;20355;-35
2021/05/20 06:32:29;;;;;;;117.85;54.63;;;10.90;89.00;;;;;;5052845;28;20124;-35
2021/05/20 06:34:55;;;;;;;113.93;53.05;;;11.00;88.20;;;;;;5051310;28;20079;-35
2021/05/20 06:37:21;;;;;;;121.18;54.33;;;10.60;89.30;;;;;;5052602;28;20025;-35
2021/05/20 06:39:47;;;;;;;125.07;57.42;;;10.20;90.40;;;;;;5053016;28;20108;-35
2021/05/20 06:42:15;;;;;;;117.18;55.72;;;10.50;90.20;;;;;;5056760;28;20036;-35
2021/05/20 06:44:41;;;;;;;104.88;48.38;;;10.40;90.20;;;;;;5056913;28;20074;-35
2021/05/20 06:47:07;;;;;;;99.57;48.85;;;10.40;89.90;;;;;;5055456;28;20466;-35
2021/05/20 06:49:33;;;;;;;119.28;51.75;;;10.40;89.10;;;;;;5055286;28;20033;-35
2021/05/20 06:51:59;;;;;;;110.60;51.72;;;10.70;89.30;;;;;;5056088;28;20128;-35
2021/05/20 06:54:25;;;;;;;101.82;51.00;;;10.50;89.40;;;;;;5056516;28;20560;-35
2021/05/20 06:59:56;;;;;;;106.45;46.30;;;10.80;88.70;;;;;;5056805;28;20075;-36
2021/05/20 07:02:28;;;;;;;89.90;41.00;;;11.60;85.30;;;;;;5056675;28;20040;-35
2021/05/20 07:04:55;;;;;;;78.85;37.97;;;11.30;87.10;;;;;;5055041;28;20045;-35
2021/05/20 07:07:21;;;;;;;94.25;41.88;;;11.10;87.40;;;;;;5055201;28;20025;-36
2021/05/20 07:09:48;;;;;;;99.13;41.05;;;11.20;87.60;;;;;;5056614;28;20135;-36
2021/05/20 07:12:15;;;;;;;81.80;40.13;;;11.50;86.40;;;;;;5056480;28;20017;-36
2021/05/20 07:14:41;;;;;;;85.65;41.00;;;11.30;86.80;;;;;;5056031;28;20389;-36
2021/05/20 07:17:07;;;;;;;97.65;43.00;;;11.70;87.10;;;;;;5056778;28;20033;-36
2021/05/20 07:19:33;;;;;;;90.63;39.83;;;11.70;85.50;;;;;;5054468;28;20112;-36
2021/05/20 07:21:59;;;;;;;85.05;39.47;;;11.50;86.10;;;;;;5055955;28;20100;-35
2021/05/20 07:24:25;;;;;;;92.45;41.45;;;11.30;86.80;;;;;;5055989;28;20504;-35
2021/05/20 07:26:51;;;;;;;94.85;43.78;;;11.10;87.80;;;;;;5054644;28;20090;-35
2021/05/20 07:29:17;;;;;;;105.25;43.28;;;11.10;88.40;;;;;;5055999;28;20040;-35
2021/05/20 07:31:43;;;;;;;102.00;45.40;;;10.90;88.10;;;;;;5056683;28;20101;-35
2021/05/20 07:34:09;;;;;;;85.72;40.40;;;10.80;88.30;;;;;;5055747;28;20028;-35
2021/05/20 07:36:34;;;;;;;109.60;50.17;;;10.80;87.70;;;;;;5056007;28;20025;-35
2021/05/20 07:39:02;;;;;;;119.80;48.72;;;10.80;88.60;;;;;;5055471;28;20086;-35
2021/05/20 07:41:29;;;;;;;104.32;45.53;;;11.00;87.70;;;;;;5055811;28;20021;-35
2021/05/20 07:43:55;;;;;;;102.00;45.90;;;10.80;88.50;;;;;;5056041;28;20476;-36
2021/05/20 07:46:21;;;;;;;114.13;51.97;;;10.90;87.60;;;;;;5054216;28;20029;-35
2021/05/20 07:48:46;;;;;;;121.68;49.25;;;10.70;88.70;;;;;;5055564;28;20051;-36
2021/05/20 07:51:12;;;;;;;125.30;55.90;;;10.90;88.40;;;;;;5053686;28;20049;-37
2021/05/20 07:53:38;;;;;;;129.88;59.80;;;11.10;87.00;;;;;;5053466;28;20400;-35
2021/05/20 07:56:04;;;;;;;129.18;54.72;;;10.90;87.70;;;;;;5055437;28;20017;-35
2021/05/20 07:58:31;;;;;;;125.38;57.45;;;10.90;88.10;;;;;;5055634;28;20033;-36
2021/05/20 08:00:57;;;;;;;122.53;55.95;;;10.70;89.30;;;;;;5054177;28;20443;-35
2021/05/20 08:03:29;;;;;;;110.85;55.72;;;10.60;88.90;;;;;;5055633;28;20100;-37
2021/05/20 08:11:06;;;;;;;103.13;53.25;;;11.00;88.20;;;;;;5055512;28;20033;-35
2021/05/20 08:13:33;;;;;;;98.68;51.28;;;10.80;88.10;;;;;;5053370;28;20061;-37
2021/05/20 08:16:00;;;;;;;98.75;49.53;;;10.90;88.00;;;;;;5055704;28;20025;-36
2021/05/20 08:18:27;;;;;;;99.75;49.95;;;11.10;87.20;;;;;;5054997;28;20488;-36
2021/05/20 08:20:54;;;;;;;96.57;46.15;;;11.10;87.40;;;;;;5055216;28;20109;-36
2021/05/20 08:23:19;;;;;;;77.47;41.42;;;11.10;86.80;;;;;;5054965;28;20401;-37
2021/05/20 08:25:45;;;;;;;88.63;44.72;;;11.10;86.40;;;;;;5054679;28;20029;-36
2021/05/20 08:28:12;;;;;;;79.97;36.75;;;11.10;87.20;;;;;;5053784;28;20048;-36
2021/05/20 08:30:39;;;;;;;102.20;47.97;;;11.20;86.80;;;;;;5055204;28;20025;-35
2021/05/20 08:33:06;;;;;;;93.57;42.33;;;10.80;87.10;;;;;;5054515;28;20054;-36
2021/05/20 08:35:32;;;;;;;100.82;48.13;;;10.90;86.90;;;;;;5054000;28;20029;-35
2021/05/20 08:37:58;;;;;;;87.05;45.47;;;10.80;87.20;;;;;;5055290;28;20036;-36
2021/05/20 08:40:24;;;;;;;91.53;44.83;;;10.90;86.60;;;;;;5053748;28;20389;-36
2021/05/20 08:42:50;;;;;;;96.40;46.55;;;11.20;85.80;;;;;;5055001;28;20032;-36
2021/05/20 08:45:18;;;;;;;100.25;50.70;;;11.10;86.20;;;;;;5054629;28;20029;-35
2021/05/20 08:47:46;;;;;;;102.35;50.45;;;11.10;86.40;;;;;;5054567;28;20052;-35
2021/05/20 08:50:13;;;;;;;98.13;50.45;;;11.10;86.40;;;;;;5054048;28;20021;-35
2021/05/20 08:52:40;;;;;;;88.47;46.08;;;11.20;86.30;;;;;;5053435;28;20100;-35
2021/05/20 08:55:09;;;;;;;96.40;50.60;;;11.30;84.90;;;;;;5054106;28;20020;-35
2021/05/20 08:57:36;;;;;;;99.65;48.97;;;11.50;85.20;;;;;;5053705;28;20088;-36
2021/05/20 09:00:04;;;;;;;87.47;48.17;;;11.20;85.80;;;;;;5054314;28;20051;-36
2021/05/20 09:02:31;;;;;;;85.53;47.42;;;11.00;86.90;;;;;;5052267;28;20018;-36
2021/05/20 09:05:18;;;;;;;79.95;46.75;;;11.40;85.80;;;;;;5053991;28;20108;-44
2021/05/20 09:07:52;;;;;;;84.63;47.72;;;11.50;84.00;;;;;;5053937;28;20052;-36
2021/05/20 09:10:20;;;;;;;76.32;46.10;;;11.40;85.20;;;;;;5054254;28;20020;-36
2021/05/20 09:12:51;;;;;;;77.90;43.72;;;11.80;84.00;;;;;;5053943;28;20029;-36
2021/05/20 09:15:25;;;;;;;76.82;44.50;;;11.60;83.60;;;;;;5053758;28;20017;-36
2021/05/20 09:17:52;;;;;;;67.43;41.08;;;11.40;84.30;;;;;;5053766;28;20075;-36
2021/05/20 09:20:19;;;;;;;71.60;42.63;;;11.60;83.40;;;;;;5052691;28;20374;-35
2021/05/20 09:22:45;;;;;;;82.78;44.50;;;11.40;84.20;;;;;;5054376;28;20098;-35
2021/05/20 09:25:11;;;;;;;77.03;44.15;;;11.30;84.90;;;;;;5054338;28;20461;-35
2021/05/20 09:27:41;;;;;;;82.88;43.65;;;11.30;85.30;;;;;;5053874;28;20071;-35
2021/05/20 09:30:10;;;;;;;61.65;35.20;;;11.80;83.50;;;;;;5053469;28;20029;-36
2021/05/20 09:33:09;;;;;;;62.47;37.28;;;11.50;83.40;;;;;;5053648;28;20033;-35
2021/05/20 09:35:34;;;;;;;65.00;36.20;;;11.90;82.50;;;;;;5053990;28;20033;-36
2021/05/20 09:38:17;;;;;;;69.68;38.58;;;11.90;82.50;;;;;;5053625;28;20051;-35
2021/05/20 09:40:43;;;;;;;66.40;34.05;;;11.80;83.30;;;;;;5053083;28;20029;-36
2021/05/20 09:43:27;;;;;;;55.42;30.33;;;11.30;83.80;;;;;;5053540;28;20032;-35
2021/05/20 09:45:56;;;;;;;61.15;29.35;;;11.50;83.40;;;;;;5053241;28;20025;-35
2021/05/20 09:48:25;;;;;;;59.10;31.48;;;11.40;83.50;;;;;;5053222;28;20519;-35
2021/05/20 09:50:58;;;;;;;65.10;33.28;;;11.30;84.00;;;;;;5052623;28;20052;-35
2021/05/20 09:53:26;;;;;;;65.50;33.08;;;11.50;83.10;;;;;;5053015;28;20049;-35
2021/05/20 09:55:55;;;;;;;55.28;29.80;;;11.90;82.40;;;;;;5052971;28;20032;-35
2021/05/20 09:58:22;;;;;;;57.88;31.02;;;12.10;81.50;;;;;;5052701;28;20493;-35
2021/05/20 10:00:49;;;;;;;55.05;29.08;;;12.40;79.70;;;;;;5052869;28;20040;-35
2021/05/20 10:03:18;;;;;;;54.03;31.30;;;12.40;79.70;;;;;;5051374;28;20119;-35
2021/05/20 10:05:59;;;;;;;51.05;30.35;;;12.80;79.00;;;;;;5053223;28;20028;-36
2021/05/20 10:08:26;;;;;;;54.47;30.65;;;12.30;79.50;;;;;;5052704;28;20021;-35
2021/05/20 10:10:54;;;;;;;50.53;29.48;;;12.80;79.50;;;;;;5052797;28;20468;-36
2021/05/20 10:13:24;;;;;;;47.40;25.50;;;13.20;77.80;;;;;;5052725;28;20441;-38
2021/05/20 10:15:51;;;;;;;46.50;26.73;;;12.80;77.70;;;;;;5053334;28;20025;-34
2021/05/20 10:18:19;;;;;;;54.80;28.33;;;13.40;76.10;;;;;;5051250;28;20473;-35
2021/05/20 10:20:51;;;;;;;42.13;26.05;;;12.90;77.40;;;;;;5052611;28;20116;-35
2021/05/20 10:23:24;;;;;;;47.70;27.50;;;13.10;76.80;;;;;;5052468;28;20025;-35
2021/05/20 10:25:53;;;;;;;45.22;25.92;;;13.80;74.50;;;;;;5052456;28;20047;-35
2021/05/20 10:28:19;;;;;;;39.13;23.90;;;13.60;74.60;;;;;;5053055;28;20041;-36
2021/05/20 10:30:48;;;;;;;38.70;22.83;;;13.80;73.90;;;;;;5052934;28;20021;-35
2021/05/20 10:33:16;;;;;;;36.92;21.42;;;13.30;76.50;;;;;;5052793;28;20048;-35
2021/05/20 10:35:45;;;;;;;38.17;21.20;;;13.20;75.00;;;;;;5053166;28;20052;-34
2021/05/20 10:38:17;;;;;;;40.20;22.87;;;13.80;73.60;;;;;;5051555;28;20025;-36
2021/05/20 10:40:43;;;;;;;33.92;20.63;;;15.10;68.60;;;;;;5052738;28;20025;-35
2021/05/20 10:43:10;;;;;;;33.90;22.00;;;15.30;66.90;;;;;;5053340;28;20029;-34
2021/05/20 10:45:38;;;;;;;35.25;22.63;;;15.10;68.10;;;;;;5053094;28;20139;-35
2021/05/20 10:48:04;;;;;;;35.40;22.80;;;14.20;70.10;;;;;;5052753;28;20477;-37
2021/05/20 10:50:55;;;;;;;38.78;23.63;;;14.20;70.20;;;;;;5052352;28;20037;-35
2021/05/20 10:53:39;;;;;;;32.60;20.65;;;15.10;68.50;;;;;;5052936;28;20078;-40
2021/05/20 10:56:06;;;;;;;27.35;16.83;;;16.00;64.20;;;;;;5052442;28;20099;-35
2021/05/20 10:58:37;;;;;;;27.35;17.55;;;15.90;63.80;;;;;;5052279;28;20083;-35
2021/05/20 11:01:06;;;;;;;28.42;18.30;;;16.80;60.60;;;;;;5053011;28;20028;-35
2021/05/20 11:03:54;;;;;;;27.40;17.80;;;17.30;57.40;;;;;;5052763;28;20419;-36
2021/05/20 11:06:44;;;;;;;29.17;19.13;;;16.40;59.20;;;;;;5050963;28;20536;-36
2021/05/20 11:09:17;;;;;;;27.73;18.43;;;16.40;61.20;;;;;;5051985;28;20039;-34
2021/05/20 11:11:43;;;;;;;27.30;18.45;;;16.40;60.50;;;;;;5052280;28;20100;-35
2021/05/20 11:14:14;;;;;;;24.50;16.52;;;15.60;63.00;;;;;;5051394;28;20445;-36
2021/05/20 11:16:42;;;;;;;26.00;17.48;;;15.60;62.90;;;;;;5052467;28;20032;-35
2021/05/20 11:19:23;;;;;;;18.75;13.93;;;15.80;62.80;;;;;;5051964;28;20511;-35
2021/05/20 11:22:04;;;;;;;18.42;12.70;;;16.00;59.90;;;;;;5051221;28;20021;-37
2021/05/20 11:24:34;;;;;;;18.25;11.57;;;15.70;59.80;;;;;;5052333;28;20025;-36
2021/05/20 11:27:01;;;;;;;18.97;11.90;;;15.60;58.70;;;;;;5054029;28;20423;-36
2021/05/20 11:29:35;;;;;;;20.90;11.07;;;16.80;56.40;;;;;;5056116;28;20027;-36
2021/05/20 11:32:29;;;;;;;18.20;12.23;;;17.50;52.80;;;;;;5056880;28;20021;-36
2021/05/20 11:35:19;;;;;;;19.40;9.85;;;17.70;52.30;;;;;;5056045;28;20473;-36
2021/05/20 11:37:45;;;;;;;14.55;9.88;;;18.00;50.70;;;;;;5055869;28;20052;-36
2021/05/20 11:40:33;;;;;;;15.77;10.27;;;17.80;49.90;;;;;;5057136;28;20385;-36
2021/05/20 11:43:00;;;;;;;12.38;8.90;;;17.60;50.80;;;;;;5055428;28;20021;-37
2021/05/20 11:45:30;;;;;;;12.50;8.60;;;18.40;49.00;;;;;;5055221;28;20033;-35
2021/05/20 11:47:58;;;;;;;;;;;18.50;48.90;;;;;;5054550;28;20116;-35
2021/05/20 11:50:24;;;;;;;10.48;7.03;;;18.30;49.90;;;;;;5055565;28;19971;-35
2021/05/20 11:52:51;;;;;;;13.45;7.03;;;17.70;49.60;;;;;;5055479;28;20025;-35
2021/05/20 11:55:19;;;;;;;9.90;6.03;;;17.40;49.10;;;;;;5055349;28;20046;-36
2021/05/20 11:57:44;;;;;;;9.35;6.57;;;18.30;46.10;;;;;;5053687;28;20021;-36
2021/05/20 12:00:15;;;;;;;11.40;7.70;;;17.30;49.50;;;;;;5055524;28;20032;-36
2021/05/20 12:02:41;;;;;;;;;;;17.30;50.50;;;;;;5055481;28;20025;-35
2021/05/20 12:05:10;;;;;;;8.07;6.13;;;17.50;50.40;;;;;;5055161;28;19905;-35
2021/05/20 12:07:38;;;;;;;10.65;6.63;;;18.40;47.40;;;;;;5055134;28;20032;-36
2021/05/20 12:10:24;;;;;;;9.23;5.43;;;18.20;48.20;;;;;;5055613;28;20473;-35
2021/05/20 12:13:01;;;;;;;6.82;4.75;;;18.40;44.60;;;;;;5053681;28;20025;-35
2021/05/20 12:15:28;;;;;;;4.70;4.07;;;18.60;43.50;;;;;;5055338;28;20127;-35
2021/05/20 12:17:58;;;;;;;6.32;5.00;;;18.70;43.10;;;;;;5053904;28;20121;-37
2021/05/20 12:20:24;;;;;;;7.82;5.90;;;18.50;43.90;;;;;;5055763;28;20025;-36
2021/05/20 12:22:51;;;;;;;7.68;5.15;;;18.90;43.20;;;;;;5055562;28;20029;-36
2021/05/20 12:25:20;;;;;;;7.18;5.07;;;19.70;41.60;;;;;;5055236;28;20025;-35
2021/05/20 12:27:51;;;;;;;8.13;5.28;;;18.30;43.80;;;;;;5053850;28;20341;-36
2021/05/20 12:30:22;;;;;;;5.35;4.70;;;18.40;44.40;;;;;;5055492;28;20033;-35
2021/05/20 12:32:50;;;;;;;12.23;6.38;;;19.30;42.30;;;;;;5055498;28;20033;-35
2021/05/20 12:35:42;;;;;;;6.40;3.90;;;18.50;44.20;;;;;;5055372;28;20037;-36
2021/05/20 12:38:20;;;;;;;10.82;5.50;;;17.80;45.70;;;;;;5053560;28;20065;-35
2021/05/20 12:41:00;;;;;;;9.02;5.40;;;18.80;43.60;;;;;;5055792;28;20381;-37